createdAt,value
2018-05-23T00:00:47.891Z,19.87
2018-05-23T00:03:15.275Z,19.76
2018-05-23T00:05:43.039Z,19.90
2018-05-23T00:08:10.439Z,19.83
2018-05-23T00:10:37.870Z,19.93
2018-05-23T00:13:05.249Z,19.88
2018-05-23T00:15:33.006Z,19.85
2018-05-23T00:18:00.389Z,19.66
2018-05-23T00:20:27.789Z,19.70
2018-05-23T00:22:55.181Z,19.73
2018-05-23T00:25:22.623Z,19.90
2018-05-23T00:27:50.012Z,19.85
2018-05-23T00:30:17.405Z,19.62
2018-05-23T00:32:44.791Z,19.65
2018-05-23T00:35:13.041Z,19.67
2018-05-23T00:37:40.415Z,19.57
2018-05-23T00:40:07.822Z,19.51
2018-05-23T00:42:37.147Z,19.48
2018-05-23T00:45:04.552Z,19.65
2018-05-23T00:47:31.935Z,19.47
2018-05-23T00:49:59.351Z,19.54
2018-05-23T00:52:26.734Z,19.37
2018-05-23T00:55:05.918Z,19.31
2018-05-23T00:57:33.828Z,19.47
2018-05-23T01:00:01.218Z,19.50
2018-05-23T01:02:28.617Z,19.40
2018-05-23T01:04:55.995Z,19.38
2018-05-23T01:07:23.394Z,19.40
2018-05-23T01:09:50.921Z,19.54
2018-05-23T01:12:18.319Z,19.61
2018-05-23T01:14:45.697Z,19.62
2018-05-23T01:17:13.210Z,19.37
2018-05-23T01:19:40.604Z,19.41
2018-05-23T01:22:08.008Z,19.17
2018-05-23T01:24:35.384Z,19.25
2018-05-23T01:27:02.784Z,19.28
2018-05-23T01:29:30.194Z,19.27
2018-05-23T01:31:57.570Z,19.46
2018-05-23T01:34:24.956Z,19.52
2018-05-23T01:36:52.348Z,19.44
2018-05-23T01:39:19.741Z,19.32
2018-05-23T01:41:47.141Z,19.41
2018-05-23T01:44:14.529Z,19.51
2018-05-23T01:46:42.144Z,19.45
2018-05-23T01:49:21.192Z,19.39
2018-05-23T01:51:48.855Z,19.44
2018-05-23T01:54:16.252Z,19.49
2018-05-23T01:56:43.644Z,19.39
2018-05-23T01:59:11.201Z,19.38
2018-05-23T02:01:38.503Z,19.43
2018-05-23T02:04:05.938Z,19.29
2018-05-23T02:06:33.336Z,19.50
2018-05-23T02:09:00.737Z,19.47
2018-05-23T02:11:28.137Z,19.48
2018-05-23T02:13:55.515Z,19.51
2018-05-23T02:16:22.912Z,19.61
2018-05-23T02:18:52.267Z,19.56
2018-05-23T02:21:19.657Z,19.63
2018-05-23T02:23:47.064Z,19.62
2018-05-23T02:26:14.452Z,19.45
2018-05-23T02:28:41.841Z,19.45
2018-05-23T02:31:09.265Z,19.57
2018-05-23T02:33:36.646Z,19.50
2018-05-23T02:36:04.047Z,19.55
2018-05-23T02:38:31.439Z,19.55
2018-05-23T02:40:58.837Z,19.52
2018-05-23T02:43:26.228Z,19.62
2018-05-23T02:45:53.963Z,19.60
2018-05-23T02:48:21.356Z,19.48
2018-05-23T02:50:48.755Z,19.36
2018-05-23T02:53:16.342Z,19.48
2018-05-23T02:55:43.823Z,19.44
2018-05-23T02:58:11.224Z,19.46
2018-05-23T03:00:38.613Z,19.40
2018-05-23T03:03:06.063Z,19.55
2018-05-23T03:05:33.382Z,19.55
2018-05-23T03:08:00.856Z,19.38
2018-05-23T03:10:28.155Z,19.46
2018-05-23T03:12:55.548Z,19.48
2018-05-23T03:15:22.932Z,19.48
2018-05-23T03:17:50.327Z,19.44
2018-05-23T03:20:17.702Z,19.49
2018-05-23T03:22:45.098Z,19.48
2018-05-23T03:25:12.487Z,19.40
2018-05-23T03:27:39.887Z,19.44
2018-05-23T03:30:07.266Z,19.43
2018-05-23T03:32:34.662Z,19.44
2018-05-23T03:35:02.043Z,19.51
2018-05-23T03:37:29.433Z,19.27
2018-05-23T03:39:56.815Z,19.32
2018-05-23T03:42:24.211Z,19.35
2018-05-23T03:44:51.599Z,19.34
2018-05-23T03:47:18.996Z,19.36
2018-05-23T03:49:46.379Z,19.28
2018-05-23T03:52:13.925Z,19.34
2018-05-23T03:54:41.319Z,19.20
2018-05-23T03:57:08.702Z,19.19
2018-05-23T03:59:48.831Z,19.20
2018-05-23T04:02:27.984Z,19.19
2018-05-23T04:05:07.163Z,19.33
2018-05-23T04:07:41.350Z,19.30
2018-05-23T04:10:08.727Z,19.31
2018-05-23T04:12:36.275Z,19.24
2018-05-23T04:15:03.691Z,19.30
2018-05-23T04:17:31.083Z,19.37
2018-05-23T04:19:58.471Z,19.34
2018-05-23T04:22:25.873Z,19.41
2018-05-23T04:24:53.288Z,19.44
2018-05-23T04:27:20.677Z,19.37
2018-05-23T04:29:48.068Z,19.42
2018-05-23T04:32:15.451Z,19.36
2018-05-23T04:34:42.839Z,19.10
2018-05-23T04:37:10.232Z,19.09
2018-05-23T04:39:37.608Z,18.97
2018-05-23T04:42:05.003Z,18.90
2018-05-23T04:44:32.390Z,18.73
2018-05-23T04:46:59.799Z,18.88
2018-05-23T04:49:27.182Z,18.76
2018-05-23T04:51:54.587Z,18.88
2018-05-23T04:54:21.959Z,18.88
2018-05-23T04:56:49.351Z,18.99
2018-05-23T04:59:16.758Z,19.21
2018-05-23T05:01:44.376Z,19.27
2018-05-23T05:04:11.773Z,19.09
2018-05-23T05:06:39.169Z,18.95
2018-05-23T05:09:06.571Z,19.17
2018-05-23T05:11:33.959Z,19.40
2018-05-23T05:14:01.372Z,19.37
2018-05-23T05:16:28.773Z,19.26
2018-05-23T05:18:56.172Z,19.23
2018-05-23T05:21:23.555Z,19.20
2018-05-23T05:23:50.949Z,19.14
2018-05-23T05:26:18.343Z,19.20
2018-05-23T05:28:46.391Z,19.34
2018-05-23T05:31:14.427Z,19.29
2018-05-23T05:33:41.831Z,19.29
2018-05-23T05:36:09.211Z,19.31
2018-05-23T05:38:36.637Z,19.20
2018-05-23T05:41:04.044Z,19.26
2018-05-23T05:43:31.470Z,19.32
2018-05-23T05:45:58.856Z,19.23
2018-05-23T05:48:26.241Z,19.19
2018-05-23T05:50:53.615Z,19.29
2018-05-23T05:53:21.012Z,19.29
2018-05-23T05:55:48.398Z,19.17
2018-05-23T05:58:15.837Z,19.17
2018-05-23T06:00:43.163Z,19.23
2018-05-23T06:03:10.558Z,19.25
2018-05-23T06:05:37.947Z,19.28
2018-05-23T06:08:05.349Z,19.26
2018-05-23T06:10:32.733Z,19.22
2018-05-23T06:13:00.132Z,19.38
2018-05-23T06:15:27.537Z,19.26
2018-05-23T06:17:54.927Z,19.21
2018-05-23T06:20:22.851Z,19.37
2018-05-23T06:22:50.252Z,19.49
2018-05-23T06:25:17.647Z,19.36
2018-05-23T06:27:45.047Z,19.43
2018-05-23T06:30:12.443Z,19.46
2018-05-23T06:32:39.836Z,19.50
2018-05-23T06:35:07.221Z,19.50
2018-05-23T06:37:34.665Z,19.61
2018-05-23T06:40:02.072Z,19.82
2018-05-23T06:42:29.514Z,19.84
2018-05-23T06:44:56.887Z,19.71
2018-05-23T06:47:24.305Z,19.64
2018-05-23T06:49:51.713Z,19.72
2018-05-23T06:52:19.134Z,19.68
2018-05-23T06:54:46.530Z,19.73
2018-05-23T06:57:14.850Z,19.93
2018-05-23T06:59:42.250Z,19.92
2018-05-23T07:02:09.646Z,19.89
2018-05-23T07:04:37.037Z,19.93
2018-05-23T07:07:04.426Z,19.94
2018-05-23T07:09:31.821Z,20.08
2018-05-23T07:11:59.204Z,19.73
2018-05-23T07:14:26.616Z,19.67
2018-05-23T07:16:54.036Z,19.70
2018-05-23T07:19:21.453Z,19.64
2018-05-23T07:21:48.875Z,19.82
2018-05-23T07:24:16.286Z,19.93
2018-05-23T07:26:43.692Z,20.06
2018-05-23T07:29:11.089Z,20.16
2018-05-23T07:31:38.502Z,20.12
2018-05-23T07:34:05.866Z,20.27
2018-05-23T07:36:33.324Z,20.26
2018-05-23T07:39:00.778Z,20.24
2018-05-23T07:41:28.196Z,20.52
2018-05-23T07:43:55.595Z,20.51
2018-05-23T07:46:23.056Z,20.45
2018-05-23T07:48:50.471Z,20.62
2018-05-23T07:51:17.863Z,20.68
2018-05-23T07:53:45.266Z,20.87
2018-05-23T07:56:12.869Z,20.65
2018-05-23T07:58:40.301Z,20.90
2018-05-23T08:01:07.717Z,20.91
2018-05-23T08:03:35.115Z,21.28
2018-05-23T08:06:02.520Z,21.16
2018-05-23T08:08:30.117Z,21.32
2018-05-23T08:10:57.714Z,21.14
2018-05-23T08:13:25.095Z,21.53
2018-05-23T08:15:52.739Z,21.56
2018-05-23T08:18:20.138Z,21.49
2018-05-23T08:20:47.538Z,21.60
2018-05-23T08:23:15.355Z,21.51
2018-05-23T08:25:42.750Z,21.37
2018-05-23T08:28:10.160Z,21.79
2018-05-23T08:30:37.550Z,21.56
2018-05-23T08:33:04.951Z,21.59
2018-05-23T08:35:32.391Z,21.81
2018-05-23T08:37:59.785Z,21.97
2018-05-23T08:40:27.170Z,22.03
2018-05-23T08:42:54.560Z,22.24
2018-05-23T08:45:21.959Z,22.26
2018-05-23T08:47:49.365Z,22.08
2018-05-23T08:50:16.765Z,22.57
2018-05-23T08:52:44.167Z,22.90
2018-05-23T08:55:11.671Z,23.16
2018-05-23T08:57:39.059Z,23.13
2018-05-23T09:00:06.477Z,23.22
2018-05-23T09:02:33.865Z,23.10
2018-05-23T09:05:01.341Z,23.22
2018-05-23T09:07:28.674Z,23.10
2018-05-23T09:09:56.180Z,23.30
2018-05-23T09:12:23.673Z,23.08
2018-05-23T09:14:50.980Z,22.81
2018-05-23T09:17:18.375Z,23.16
2018-05-23T09:19:45.784Z,23.34
2018-05-23T09:22:13.189Z,23.46
2018-05-23T09:24:40.578Z,23.34
2018-05-23T09:27:07.964Z,23.44
2018-05-23T09:29:35.371Z,23.53
2018-05-23T09:32:02.768Z,23.16
2018-05-23T09:34:30.268Z,23.04
2018-05-23T09:36:57.698Z,23.24
2018-05-23T09:39:25.090Z,23.29
2018-05-23T09:41:52.489Z,23.33
2018-05-23T09:44:20.048Z,23.23
2018-05-23T09:46:47.472Z,22.94
2018-05-23T09:49:15.714Z,22.86
2018-05-23T09:51:43.126Z,23.06
2018-05-23T09:54:10.531Z,22.77
2018-05-23T09:56:37.924Z,23.21
2018-05-23T09:59:05.321Z,23.49
2018-05-23T10:01:32.919Z,23.56
2018-05-23T10:04:00.274Z,23.82
2018-05-23T10:06:27.664Z,23.95
2018-05-23T10:08:55.054Z,24.06
2018-05-23T10:11:22.458Z,23.75
2018-05-23T10:13:49.852Z,23.65
2018-05-23T10:16:17.270Z,23.86
2018-05-23T10:18:44.663Z,24.26
2018-05-23T10:21:12.057Z,24.68
2018-05-23T10:23:39.456Z,24.87
2018-05-23T10:26:06.838Z,24.55
2018-05-23T10:28:34.350Z,24.75
2018-05-23T10:31:01.741Z,25.08
2018-05-23T10:33:29.202Z,25.14
2018-05-23T10:35:56.525Z,25.12
2018-05-23T10:38:23.912Z,25.25
2018-05-23T10:40:51.328Z,25.24
2018-05-23T10:43:18.699Z,24.83
2018-05-23T10:45:46.093Z,24.80
2018-05-23T10:48:13.481Z,25.09
2018-05-23T10:50:40.879Z,24.68
2018-05-23T10:53:08.257Z,24.62
2018-05-23T10:55:35.663Z,24.84
2018-05-23T10:58:03.044Z,24.66
2018-05-23T11:00:30.431Z,24.72
2018-05-23T11:02:57.878Z,24.94
2018-05-23T11:05:25.215Z,25.01
2018-05-23T11:07:52.609Z,25.25
2018-05-23T11:10:20.017Z,25.24
2018-05-23T11:12:47.401Z,25.39
2018-05-23T11:15:14.840Z,25.75
2018-05-23T11:17:42.193Z,25.80
2018-05-23T11:20:09.588Z,25.82
2018-05-23T11:22:36.977Z,25.95
2018-05-23T11:25:04.371Z,25.68
2018-05-23T11:27:31.834Z,25.69
2018-05-23T11:29:59.217Z,26.00
2018-05-23T11:32:26.616Z,26.33
2018-05-23T11:34:53.998Z,26.24
2018-05-23T11:37:21.468Z,26.53
2018-05-23T11:39:48.879Z,26.75
2018-05-23T11:42:17.472Z,26.88
2018-05-23T11:44:45.124Z,26.90
2018-05-23T11:47:12.522Z,26.57
2018-05-23T11:49:39.906Z,26.72
2018-05-23T11:52:07.368Z,26.93
2018-05-23T11:54:34.795Z,27.32
2018-05-23T11:57:02.152Z,27.76
2018-05-23T11:59:29.544Z,28.17
2018-05-23T12:01:57.020Z,28.98
2018-05-23T12:04:24.476Z,28.81
2018-05-23T12:06:51.870Z,28.77
2018-05-23T12:09:19.307Z,28.80
2018-05-23T12:11:46.740Z,29.33
2018-05-23T12:14:14.147Z,29.25
2018-05-23T12:16:42.533Z,29.69
2018-05-23T12:19:09.947Z,30.10
2018-05-23T12:21:37.349Z,30.33
2018-05-23T12:24:04.723Z,31.06
2018-05-23T12:26:32.175Z,31.45
2018-05-23T12:28:59.572Z,31.55
2018-05-23T12:31:27.015Z,31.88
2018-05-23T12:33:54.404Z,33.54
2018-05-23T12:36:21.821Z,32.82
2018-05-23T12:38:49.203Z,32.52
2018-05-23T12:41:16.836Z,33.06
2018-05-23T12:43:44.220Z,32.69
2018-05-23T12:46:11.620Z,32.89
2018-05-23T12:48:39.008Z,33.46
2018-05-23T12:51:06.407Z,34.19
2018-05-23T12:53:33.791Z,33.55
2018-05-23T12:56:02.181Z,31.99
2018-05-23T12:58:29.590Z,31.74
2018-05-23T13:00:56.976Z,30.71
2018-05-23T13:03:24.462Z,29.87
2018-05-23T13:05:51.796Z,30.78
2018-05-23T13:08:19.189Z,31.73
2018-05-23T13:10:46.580Z,33.14
2018-05-23T13:13:13.962Z,31.98
2018-05-23T13:15:41.367Z,31.41
2018-05-23T13:18:08.811Z,30.23
2018-05-23T13:20:36.204Z,29.91
2018-05-23T13:23:03.589Z,29.44
2018-05-23T13:25:30.980Z,29.73
2018-05-23T13:27:58.403Z,32.35
2018-05-23T13:30:25.810Z,33.16
2018-05-23T13:32:53.200Z,34.41
2018-05-23T13:35:20.611Z,34.55
2018-05-23T13:37:47.996Z,35.28
2018-05-23T13:40:15.423Z,35.83
2018-05-23T13:42:42.807Z,35.12
2018-05-23T13:45:10.199Z,32.96
2018-05-23T13:47:37.578Z,31.49
2018-05-23T13:50:05.197Z,30.71
2018-05-23T13:52:32.705Z,30.20
2018-05-23T13:55:00.228Z,27.50
2018-05-23T13:57:27.632Z,24.25
2018-05-23T13:59:55.020Z,23.92
2018-05-23T14:02:22.686Z,24.91
2018-05-23T14:04:50.124Z,25.78
2018-05-23T14:07:17.511Z,26.19
2018-05-23T14:09:45.249Z,25.89
2018-05-23T14:12:12.660Z,25.97
2018-05-23T14:14:40.045Z,26.24
2018-05-23T14:17:07.443Z,25.91
2018-05-23T14:19:35.789Z,25.27
2018-05-23T14:22:03.266Z,25.79
2018-05-23T14:24:30.657Z,25.84
2018-05-23T14:26:58.051Z,26.14
2018-05-23T14:29:25.483Z,26.11
2018-05-23T14:31:52.888Z,26.41
2018-05-23T14:34:20.285Z,25.84
2018-05-23T14:36:47.696Z,25.55
2018-05-23T14:39:15.066Z,24.97
2018-05-23T14:41:42.468Z,24.98
2018-05-23T14:44:09.855Z,25.03
2018-05-23T14:46:37.253Z,25.01
2018-05-23T14:49:04.741Z,24.86
2018-05-23T14:51:32.146Z,24.62
2018-05-23T14:53:59.532Z,24.52
2018-05-23T14:56:26.940Z,24.01
2018-05-23T14:58:54.340Z,23.73
2018-05-23T15:01:21.738Z,23.78
2018-05-23T15:03:52.516Z,23.76
2018-05-23T15:06:19.917Z,23.76
2018-05-23T15:08:47.829Z,23.58
2018-05-23T15:11:15.220Z,23.47
2018-05-23T15:13:42.671Z,23.73
2018-05-23T15:16:11.031Z,23.66
2018-05-23T15:18:38.448Z,23.38
2018-05-23T15:21:06.087Z,23.11
2018-05-23T15:23:33.467Z,23.25
2018-05-23T15:26:11.170Z,23.18
2018-05-23T15:28:38.577Z,23.16
2018-05-23T15:31:06.312Z,23.21
2018-05-23T15:33:33.739Z,23.26
2018-05-23T15:36:01.163Z,23.34
2018-05-23T15:38:34.161Z,23.33
2018-05-23T15:41:01.558Z,22.99
2018-05-23T15:43:28.956Z,23.21
2018-05-23T15:45:56.406Z,23.32
2018-05-23T15:48:23.832Z,23.21
2018-05-23T15:50:51.231Z,22.87
2018-05-23T15:53:18.686Z,23.11
2018-05-23T15:55:47.167Z,23.02
2018-05-23T15:58:14.557Z,22.97
2018-05-23T16:00:41.961Z,23.00
2018-05-23T16:03:09.351Z,23.06
2018-05-23T16:05:37.724Z,23.01
2018-05-23T16:08:05.124Z,22.93
2018-05-23T16:10:32.518Z,22.93
2018-05-23T16:12:59.924Z,22.83
2018-05-23T16:15:27.321Z,22.86
2018-05-23T16:17:54.704Z,22.83
2018-05-23T16:20:22.106Z,22.84
2018-05-23T16:22:49.500Z,22.67
2018-05-23T16:25:16.892Z,22.60
2018-05-23T16:27:44.287Z,22.75
2018-05-23T16:30:11.674Z,22.63
2018-05-23T16:32:39.055Z,22.64
2018-05-23T16:35:06.483Z,22.55
2018-05-23T16:37:33.876Z,22.36
2018-05-23T16:40:01.266Z,22.27
2018-05-23T16:42:28.657Z,22.20
2018-05-23T16:44:56.042Z,22.11
2018-05-23T16:47:23.446Z,22.14
2018-05-23T16:49:50.825Z,21.99
2018-05-23T16:52:18.273Z,21.88
2018-05-23T16:54:45.679Z,22.01
2018-05-23T16:57:13.068Z,22.09
2018-05-23T16:59:40.449Z,21.93
2018-05-23T17:02:07.857Z,21.95
2018-05-23T17:04:35.248Z,21.87
2018-05-23T17:07:02.640Z,21.94
2018-05-23T17:09:30.029Z,21.63
2018-05-23T17:11:57.424Z,22.02
2018-05-23T17:14:24.803Z,22.11
2018-05-23T17:16:52.187Z,22.06
2018-05-23T17:19:19.566Z,21.91
2018-05-23T17:21:48.426Z,21.94
2018-05-23T17:24:15.846Z,21.98
2018-05-23T17:26:43.244Z,21.91
2018-05-23T17:29:10.624Z,22.07
2018-05-23T17:31:38.014Z,22.19
2018-05-23T17:34:05.390Z,22.03
2018-05-23T17:36:32.787Z,22.12
2018-05-23T17:39:01.103Z,22.12
2018-05-23T17:41:28.505Z,21.88
2018-05-23T17:43:55.898Z,22.09
2018-05-23T17:46:23.311Z,21.95
2018-05-23T17:48:50.777Z,21.49
2018-05-23T17:51:18.076Z,21.77
2018-05-23T17:53:45.454Z,21.89
2018-05-23T17:56:12.885Z,22.08
2018-05-23T17:58:40.240Z,21.99
2018-05-23T18:01:07.688Z,21.90
2018-05-23T18:03:35.075Z,22.08
2018-05-23T18:06:02.571Z,21.92
2018-05-23T18:08:29.873Z,21.75
2018-05-23T18:10:57.301Z,21.73
2018-05-23T18:13:24.657Z,21.88
2018-05-23T18:15:52.044Z,21.77
2018-05-23T18:18:19.448Z,21.73
2018-05-23T18:20:47.773Z,21.71
2018-05-23T18:23:15.166Z,21.86
2018-05-23T18:25:42.556Z,21.84
2018-05-23T18:28:10.034Z,21.77
2018-05-23T18:30:37.347Z,21.92
2018-05-23T18:33:04.725Z,22.00
2018-05-23T18:35:32.106Z,21.89
2018-05-23T18:37:59.512Z,21.87
2018-05-23T18:40:26.899Z,21.76
2018-05-23T18:42:54.286Z,21.62
2018-05-23T18:45:21.682Z,21.71
2018-05-23T18:47:49.083Z,21.49
2018-05-23T18:50:16.471Z,21.65
2018-05-23T18:52:44.239Z,21.56
2018-05-23T18:55:11.625Z,21.38
2018-05-23T18:57:39.031Z,21.53
2018-05-23T19:00:06.427Z,21.65
2018-05-23T19:02:33.816Z,21.36
2018-05-23T19:05:01.253Z,21.30
2018-05-23T19:07:28.600Z,21.40
2018-05-23T19:09:55.987Z,21.54
2018-05-23T19:12:23.395Z,21.23
2018-05-23T19:14:50.783Z,21.25
2018-05-23T19:17:19.004Z,21.00
2018-05-23T19:19:46.507Z,21.26
2018-05-23T19:22:13.816Z,20.97
2018-05-23T19:24:41.213Z,21.05
2018-05-23T19:27:08.601Z,20.97
2018-05-23T19:29:35.989Z,21.17
2018-05-23T19:32:03.396Z,21.30
2018-05-23T19:34:30.773Z,20.98
2018-05-23T19:36:58.165Z,21.04
2018-05-23T19:39:25.561Z,20.85
2018-05-23T19:41:52.942Z,20.64
2018-05-23T19:44:20.330Z,20.74
2018-05-23T19:46:48.170Z,20.99
2018-05-23T19:49:15.568Z,20.88
2018-05-23T19:51:42.985Z,20.85
2018-05-23T19:54:10.486Z,20.85
2018-05-23T19:56:37.930Z,20.50
2018-05-23T19:59:05.271Z,20.74
2018-05-23T20:01:32.671Z,20.69
2018-05-23T20:04:00.086Z,20.83
2018-05-23T20:06:27.481Z,20.70
2018-05-23T20:08:54.886Z,20.48
2018-05-23T20:11:22.270Z,20.45
2018-05-23T20:13:49.670Z,20.47
2018-05-23T20:16:17.055Z,20.49
2018-05-23T20:18:44.655Z,20.32
2018-05-23T20:21:12.049Z,20.06
2018-05-23T20:23:39.448Z,20.04
2018-05-23T20:26:06.840Z,20.13
2018-05-23T20:28:34.250Z,20.29
2018-05-23T20:31:01.639Z,20.25
2018-05-23T20:33:29.035Z,20.42
2018-05-23T20:35:56.423Z,20.27
2018-05-23T20:38:23.831Z,20.10
2018-05-23T20:40:51.228Z,20.14
2018-05-23T20:43:19.102Z,20.16
2018-05-23T20:45:46.503Z,20.32
2018-05-23T20:48:13.900Z,20.41
2018-05-23T20:50:41.280Z,20.41
2018-05-23T20:53:08.752Z,20.38
2018-05-23T20:55:36.074Z,20.36
2018-05-23T20:58:03.465Z,20.24
2018-05-23T21:00:30.860Z,20.22
2018-05-23T21:02:58.255Z,20.32
2018-05-23T21:05:25.789Z,20.22
2018-05-23T21:07:53.055Z,20.28
2018-05-23T21:10:20.438Z,20.37
2018-05-23T21:12:48.555Z,20.15
2018-05-23T21:15:15.959Z,20.27
2018-05-23T21:17:43.371Z,20.36
2018-05-23T21:20:10.819Z,20.29
2018-05-23T21:22:38.223Z,20.15
2018-05-23T21:25:05.604Z,20.22
2018-05-23T21:27:33.007Z,19.99
2018-05-23T21:30:00.393Z,20.06
2018-05-23T21:32:27.787Z,19.78
2018-05-23T21:34:55.570Z,19.87
2018-05-23T21:37:22.966Z,19.91
2018-05-23T21:39:50.355Z,19.81
2018-05-23T21:42:18.707Z,20.22
2018-05-23T21:44:46.101Z,20.22
2018-05-23T21:47:13.695Z,20.14
2018-05-23T21:49:41.139Z,20.23
2018-05-23T21:52:08.568Z,20.25
2018-05-23T21:54:35.983Z,20.34
2018-05-23T21:57:03.472Z,20.19
2018-05-23T21:59:30.951Z,20.31
2018-05-23T22:01:58.343Z,20.44
2018-05-23T22:04:25.743Z,20.23
2018-05-23T22:06:53.142Z,20.06
2018-05-23T22:09:20.544Z,20.19
2018-05-23T22:11:48.819Z,20.14
2018-05-23T22:14:16.229Z,20.31
2018-05-23T22:16:43.619Z,20.06
2018-05-23T22:19:11.024Z,19.95
2018-05-23T22:21:38.416Z,20.00
2018-05-23T22:24:05.811Z,20.01
2018-05-23T22:26:33.479Z,20.11
2018-05-23T22:29:00.883Z,20.24
2018-05-23T22:31:28.263Z,20.07
2018-05-23T22:33:55.672Z,20.18
2018-05-23T22:36:23.056Z,20.16
2018-05-23T22:38:50.466Z,20.25
2018-05-23T22:41:17.867Z,20.17
2018-05-23T22:43:45.272Z,19.98
2018-05-23T22:46:12.660Z,20.09
2018-05-23T22:48:40.093Z,20.03
2018-05-23T22:51:07.476Z,20.04
2018-05-23T22:53:34.874Z,20.12
2018-05-23T22:56:03.198Z,20.16
2018-05-23T22:58:30.598Z,19.94
2018-05-23T23:00:58.093Z,19.98
2018-05-23T23:03:25.492Z,19.97
2018-05-23T23:05:52.882Z,19.93
2018-05-23T23:08:20.361Z,19.97
2018-05-23T23:10:47.747Z,19.69
2018-05-23T23:13:15.143Z,19.95
2018-05-23T23:15:42.533Z,19.99
2018-05-23T23:18:09.939Z,19.48
2018-05-23T23:20:37.331Z,19.88
2018-05-23T23:23:04.742Z,19.92
2018-05-23T23:25:32.123Z,19.84
2018-05-23T23:27:59.532Z,19.79
2018-05-23T23:30:26.928Z,19.59
2018-05-23T23:32:54.345Z,19.65
2018-05-23T23:35:21.758Z,19.78
2018-05-23T23:37:49.280Z,19.50
2018-05-23T23:40:16.680Z,19.47
2018-05-23T23:42:44.084Z,19.51
2018-05-23T23:45:11.469Z,19.70
2018-05-23T23:47:38.871Z,19.61
2018-05-23T23:50:06.279Z,19.41
2018-05-23T23:52:33.671Z,19.49
2018-05-23T23:55:01.086Z,19.46
2018-05-23T23:57:28.506Z,19.57
2018-05-23T23:59:55.915Z,19.37
